Time;durP1;ratioP1;P1;durP2;ratioP2;P2;SDS_P1;SDS_P2;PMS_P1;PMS_P2;Temp;Humidity;BMP_temperature;BMP_pressure;BME280_temperature;BME280_humidity;BME280_pressure;Samples;Min_cycle;Max_cycle;Signal;HPM_P1;HPM_P2
2022/04/26 03:37:06;;;;;;;9.73;5.77;;;;;;;;;;5015992;28;20214;-78
2022/04/26 03:39:33;;;;;;;8.87;5.80;;;;;;;;;;5023659;28;20201;-78
2022/04/26 03:42:00;;;;;;;10.40;5.80;;;;;;;;;;5021715;28;21779;-78
2022/04/26 03:44:28;;;;;;;8.90;5.97;;;;;;;;;;5015611;28;20259;-78
2022/04/26 03:46:55;;;;;;;9.03;5.57;;;;;;;;;;5018121;28;20212;-78
2022/04/26 03:49:24;;;;;;;9.67;5.77;;;;;;;;;;5017525;28;20199;-78
2022/04/26 03:51:52;;;;;;;8.47;5.70;;;;;;;;;;5021497;28;20215;-78
2022/04/26 03:54:19;;;;;;;8.73;5.57;;;;;;;;;;5017861;28;21750;-78
2022/04/26 03:56:46;;;;;;;8.70;5.70;;;;;;;;;;5020458;28;20573;-78
2022/04/26 03:59:13;;;;;;;9.90;5.70;;;;;;;;;;5019314;28;20231;-78
2022/04/26 04:01:40;;;;;;;8.87;5.40;;;;;;;;;;5019466;28;20269;-78
2022/04/26 04:04:07;;;;;;;12.93;5.60;;;;;;;;;;5019984;28;20227;-78
2022/04/26 04:06:36;;;;;;;10.50;5.83;;;;;;;;;;5014640;28;20567;-78
2022/04/26 04:09:04;;;;;;;8.97;5.83;;;;;;;;;;5017513;28;20209;-78
2022/04/26 04:11:31;;;;;;;9.47;6.10;;;;;;;;;;5021147;28;20224;-78
2022/04/26 04:13:58;;;;;;;11.80;6.50;;;;;;;;;;5018387;28;20211;-78
2022/04/26 04:16:25;;;;;;;9.90;6.10;;;;;;;;;;5020723;28;20299;-78
2022/04/26 04:21:39;;;;;;;9.70;6.10;;;;;;;;;;5016982;28;20235;-78
2022/04/26 04:24:07;;;;;;;9.87;6.20;;;;;;;;;;5016658;28;20262;-78
2022/04/26 04:26:34;;;;;;;10.13;6.50;;;;;;;;;;5018378;28;20581;-78
2022/04/26 04:29:02;;;;;;;11.17;6.90;;;;;;;;;;5017046;28;20630;-78
2022/04/26 04:31:29;;;;;;;9.73;6.50;;;;;;;;;;5018521;28;20223;-78
2022/04/26 04:33:56;;;;;;;11.17;6.33;;;;;;;;;;5019350;28;20201;-78
2022/04/26 04:36:23;;;;;;;10.87;7.27;;;;;;;;;;5022291;28;20705;-77
2022/04/26 04:38:52;;;;;;;11.73;6.57;;;;;;;;;;5020266;28;20227;-78
2022/04/26 04:41:19;;;;;;;12.10;7.47;;;;;;;;;;5020734;28;20228;-78
2022/04/26 04:43:46;;;;;;;10.47;6.53;;;;;;;;;;5018760;28;20253;-77
2022/04/26 04:46:13;;;;;;;10.27;6.23;;;;;;;;;;5023808;28;20662;-79
2022/04/26 04:48:40;;;;;;;11.17;6.53;;;;;;;;;;5018986;28;20227;-78
2022/04/26 04:51:08;;;;;;;11.17;6.40;;;;;;;;;;5017168;28;20292;-78
2022/04/26 04:53:35;;;;;;;9.93;6.60;;;;;;;;;;5016422;28;20208;-78
2022/04/26 04:56:04;;;;;;;12.93;6.87;;;;;;;;;;5019067;28;20232;-78
2022/04/26 04:58:32;;;;;;;10.03;6.67;;;;;;;;;;5019885;28;20615;-78
2022/04/26 05:00:59;;;;;;;12.50;7.10;;;;;;;;;;5016294;28;20297;-78
2022/04/26 05:03:26;;;;;;;11.30;6.70;;;;;;;;;;5020091;28;20206;-78
2022/04/26 05:05:53;;;;;;;9.67;6.10;;;;;;;;;;5016820;28;20199;-78
2022/04/26 05:08:21;;;;;;;10.37;6.90;;;;;;;;;;5017259;28;20283;-77
2022/04/26 05:10:48;;;;;;;10.10;6.73;;;;;;;;;;5016387;28;20227;-78
2022/04/26 05:13:16;;;;;;;13.90;7.83;;;;;;;;;;5017393;28;20200;-78
2022/04/26 05:15:44;;;;;;;21.07;12.07;;;;;;;;;;5020421;28;20292;-78
2022/04/26 05:18:12;;;;;;;18.17;11.10;;;;;;;;;;5018927;28;20239;-79
2022/04/26 05:20:40;;;;;;;16.93;8.77;;;;;;;;;;5017217;28;20235;-78
2022/04/26 05:25:52;;;;;;;10.63;7.13;;;;;;;;;;5017740;28;20203;-78
2022/04/26 05:28:20;;;;;;;9.97;6.83;;;;;;;;;;5015541;28;20271;-78
2022/04/26 05:30:47;;;;;;;12.37;7.87;;;;;;;;;;5016654;28;20234;-78
2022/04/26 05:33:14;;;;;;;11.10;7.33;;;;;;;;;;5017925;28;20289;-78
2022/04/26 05:35:42;;;;;;;10.80;6.80;;;;;;;;;;5021143;28;20268;-78
2022/04/26 05:38:09;;;;;;;12.23;6.57;;;;;;;;;;5021068;28;20216;-78
2022/04/26 05:40:36;;;;;;;9.90;6.77;;;;;;;;;;5014757;28;20298;-78
2022/04/26 05:43:03;;;;;;;9.80;6.43;;;;;;;;;;5018734;28;20317;-78
2022/04/26 05:45:32;;;;;;;11.90;6.90;;;;;;;;;;5013218;28;20214;-77
2022/04/26 05:47:59;;;;;;;10.47;6.90;;;;;;;;;;5021256;28;20287;-78
2022/04/26 05:50:26;;;;;;;12.80;8.03;;;;;;;;;;5017487;28;20243;-78
2022/04/26 05:52:53;;;;;;;16.33;7.67;;;;;;;;;;5018199;28;20231;-78
2022/04/26 05:55:20;;;;;;;12.27;7.87;;;;;;;;;;5015783;28;20562;-78
2022/04/26 05:57:48;;;;;;;12.83;7.80;;;;;;;;;;5020015;28;20287;-78
2022/04/26 06:00:16;;;;;;;15.00;8.67;;;;;;;;;;5024214;28;20263;-77
2022/04/26 06:02:44;;;;;;;14.50;8.50;;;;;;;;;;5023334;28;20227;-78
2022/04/26 06:05:12;;;;;;;15.53;9.07;;;;;;;;;;5022810;28;20291;-78
2022/04/26 06:07:39;;;;;;;16.60;9.03;;;;;;;;;;5019716;28;20212;-77
2022/04/26 06:10:07;;;;;;;15.00;8.80;;;;;;;;;;5020902;28;20207;-78
2022/04/26 06:12:35;;;;;;;14.33;8.60;;;;;;;;;;5022609;28;20216;-78
2022/04/26 06:15:02;;;;;;;16.33;10.17;;;;;;;;;;5020756;28;20204;-77
2022/04/26 06:17:31;;;;;;;16.10;9.30;;;;;;;;;;5018149;28;20290;-78
2022/04/26 06:20:00;;;;;;;13.97;7.83;;;;;;;;;;5024380;28;20200;-78
2022/04/26 06:22:27;;;;;;;14.03;8.40;;;;;;;;;;5017747;28;20318;-77
2022/04/26 06:24:54;;;;;;;15.27;8.63;;;;;;;;;;5019392;28;20246;-77
2022/04/26 06:27:22;;;;;;;13.30;8.33;;;;;;;;;;5019097;28;20321;-77
2022/04/26 06:29:49;;;;;;;13.10;8.70;;;;;;;;;;5020631;28;20673;-77
2022/04/26 06:32:16;;;;;;;14.17;8.93;;;;;;;;;;5019701;28;20653;-78
2022/04/26 06:34:43;;;;;;;16.77;9.07;;;;;;;;;;5017053;28;20238;-78
2022/04/26 06:37:13;;;;;;;14.23;8.20;;;;;;;;;;5019581;28;20696;-77
2022/04/26 06:39:40;;;;;;;14.87;8.73;;;;;;;;;;5017648;28;20211;-77
2022/04/26 06:42:07;;;;;;;14.07;8.77;;;;;;;;;;5022001;28;20223;-77
2022/04/26 06:44:34;;;;;;;16.50;9.37;;;;;;;;;;5014746;28;20208;-78
2022/04/26 06:47:01;;;;;;;16.57;9.53;;;;;;;;;;5022549;28;20222;-77
2022/04/26 06:49:29;;;;;;;15.30;9.07;;;;;;;;;;5018350;28;20303;-77
2022/04/26 06:51:56;;;;;;;16.30;9.70;;;;;;;;;;5017016;28;20736;-78
2022/04/26 06:54:24;;;;;;;18.80;10.57;;;;;;;;;;5018127;28;20765;-78
2022/04/26 06:56:51;;;;;;;17.53;9.27;;;;;;;;;;5015683;28;20200;-78
2022/04/26 06:59:19;;;;;;;17.00;10.03;;;;;;;;;;5019826;28;20203;-78
2022/04/26 07:01:52;;;;;;;16.70;9.40;;;;;;;;;;5017998;23;20228;-75
2022/04/26 07:04:19;;;;;;;17.70;9.20;;;;;;;;;;4994586;28;20235;-75
2022/04/26 07:06:46;;;;;;;18.83;10.17;;;;;;;;;;4996233;28;20204;-76
2022/04/26 07:09:13;;;;;;;18.97;10.07;;;;;;;;;;4998591;28;20254;-76
2022/04/26 07:11:42;;;;;;;17.73;10.10;;;;;;;;;;4989638;28;20760;-76
2022/04/26 07:14:10;;;;;;;19.17;10.97;;;;;;;;;;4982501;28;20654;-75
2022/04/26 07:16:37;;;;;;;18.73;10.73;;;;;;;;;;4976187;28;20687;-74
2022/04/26 07:19:04;;;;;;;18.33;10.53;;;;;;;;;;4978161;28;20655;-75
2022/04/26 07:21:31;;;;;;;18.77;10.53;;;;;;;;;;4972522;28;20279;-75
2022/04/26 07:23:59;;;;;;;19.00;10.73;;;;;;;;;;4980960;28;20707;-75
2022/04/26 07:26:26;;;;;;;20.20;10.77;;;;;;;;;;4974746;28;20212;-75
2022/04/26 07:28:55;;;;;;;19.67;10.43;;;;;;;;;;4981889;28;20309;-76
2022/04/26 07:31:22;;;;;;;21.30;11.07;;;;;;;;;;4980680;28;20232;-76
2022/04/26 07:36:34;;;;;;;18.57;10.87;;;;;;;;;;4979356;28;20204;-76
2022/04/26 07:39:01;;;;;;;18.57;10.20;;;;;;;;;;4979348;28;20672;-76
2022/04/26 07:41:29;;;;;;;19.20;10.00;;;;;;;;;;4979944;28;20224;-75
2022/04/26 07:43:58;;;;;;;17.20;10.37;;;;;;;;;;4984918;28;20229;-76
2022/04/26 07:46:26;;;;;;;20.17;10.63;;;;;;;;;;4982044;28;20215;-75
2022/04/26 07:48:54;;;;;;;18.93;10.20;;;;;;;;;;4982138;28;20299;-76
2022/04/26 07:51:21;;;;;;;19.70;10.90;;;;;;;;;;4980291;28;20228;-76
2022/04/26 07:53:48;;;;;;;18.93;10.43;;;;;;;;;;4977122;28;20292;-74
2022/04/26 07:56:15;;;;;;;18.67;10.77;;;;;;;;;;4974985;28;20293;-76
2022/04/26 07:58:42;;;;;;;19.70;10.53;;;;;;;;;;4977765;28;20205;-75
2022/04/26 08:01:11;;;;;;;24.07;11.87;;;;;;;;;;4975043;28;20488;-76
2022/04/26 08:03:38;;;;;;;25.63;11.77;;;;;;;;;;4980006;28;20417;-74
2022/04/26 08:06:05;;;;;;;25.47;11.87;;;;;;;;;;4981925;28;20296;-75
2022/04/26 08:08:32;;;;;;;19.23;11.30;;;;;;;;;;4980836;28;20209;-74
2022/04/26 08:11:03;;;;;;;21.60;10.93;;;;;;;;;;4979322;28;20312;-75
2022/04/26 08:13:30;;;;;;;19.47;10.67;;;;;;;;;;4980857;28;20201;-75
2022/04/26 08:15:57;;;;;;;22.63;11.90;;;;;;;;;;4976873;28;20210;-75
2022/04/26 08:18:26;;;;;;;19.73;11.30;;;;;;;;;;4977573;28;20209;-75
2022/04/26 08:20:53;;;;;;;22.30;11.97;;;;;;;;;;4972305;28;20323;-75
2022/04/26 08:23:23;;;;;;;24.27;12.30;;;;;;;;;;4968565;28;20445;-75
2022/04/26 08:28:35;;;;;;;24.00;12.37;;;;;;;;;;4975328;28;20216;-75
2022/04/26 08:31:03;;;;;;;24.93;12.53;;;;;;;;;;4969371;28;20224;-75
2022/04/26 08:33:34;;;;;;;22.17;11.97;;;;;;;;;;4963572;28;20293;-75
2022/04/26 08:36:01;;;;;;;23.60;12.07;;;;;;;;;;4974463;28;20452;-76
2022/04/26 08:38:28;;;;;;;21.57;11.50;;;;;;;;;;4972846;28;20697;-76
2022/04/26 08:40:55;;;;;;;24.90;12.00;;;;;;;;;;4973378;28;20221;-76
2022/04/26 08:43:24;;;;;;;24.30;12.03;;;;;;;;;;4969464;28;20280;-76
2022/04/26 08:45:52;;;;;;;23.97;12.50;;;;;;;;;;4970158;28;20204;-75
2022/04/26 08:51:07;;;;;;;22.20;11.43;;;;;;;;;;4983361;28;20223;-75
2022/04/26 08:53:36;;;;;;;21.70;11.60;;;;;;;;;;4974809;28;20209;-76
2022/04/26 08:56:06;;;;;;;21.97;11.90;;;;;;;;;;4975305;28;20208;-76
2022/04/26 08:58:34;;;;;;;21.40;12.00;;;;;;;;;;4973525;28;20201;-76
2022/04/26 09:01:09;;;;;;;19.13;11.27;;;;;;;;;;4975448;28;20237;-76
2022/04/26 09:03:37;;;;;;;18.67;10.90;;;;;;;;;;4974749;28;20229;-75
2022/04/26 09:06:08;;;;;;;21.73;12.87;;;;;;;;;;4970773;28;20205;-75
2022/04/26 09:08:36;;;;;;;21.27;10.90;;;;;;;;;;4978539;28;20259;-76
2022/04/26 09:11:04;;;;;;;18.50;10.47;;;;;;;;;;4972939;28;20734;-77
2022/04/26 09:13:39;;;;;;;19.50;11.17;;;;;;;;;;4975139;28;20651;-77
2022/04/26 09:16:07;;;;;;;20.57;10.87;;;;;;;;;;4971263;28;20280;-75
2022/04/26 09:18:34;;;;;;;23.47;10.63;;;;;;;;;;4973861;28;20216;-76
2022/04/26 09:21:11;;;;;;;19.07;10.03;;;;;;;;;;4975006;28;20308;-75
2022/04/26 09:23:39;;;;;;;19.07;10.17;;;;;;;;;;4976273;28;20223;-75
2022/04/26 09:26:08;;;;;;;18.37;9.13;;;;;;;;;;4980822;28;20201;-76
2022/04/26 09:28:36;;;;;;;18.17;9.37;;;;;;;;;;4977828;28;20206;-77
2022/04/26 09:31:17;;;;;;;18.90;10.03;;;;;;;;;;4970886;28;20233;-76
2022/04/26 09:33:47;;;;;;;19.17;9.37;;;;;;;;;;4980352;28;20280;-76
2022/04/26 09:36:19;;;;;;;17.27;8.80;;;;;;;;;;4968194;28;20205;-76
2022/04/26 09:38:53;;;;;;;16.20;8.83;;;;;;;;;;4969550;28;20217;-75
2022/04/26 09:41:20;;;;;;;18.07;8.70;;;;;;;;;;4965597;28;20235;-76
2022/04/26 09:43:58;;;;;;;17.87;9.37;;;;;;;;;;4972708;28;20228;-76
2022/04/26 09:46:27;;;;;;;17.57;9.67;;;;;;;;;;4975057;28;20237;-76
2022/04/26 09:48:54;;;;;;;21.60;11.23;;;;;;;;;;4974604;28;20198;-76
2022/04/26 09:51:23;;;;;;;23.17;11.10;;;;;;;;;;4979122;28;20231;-76
2022/04/26 09:53:50;;;;;;;21.27;10.30;;;;;;;;;;4973478;28;20205;-77
2022/04/26 09:56:17;;;;;;;20.10;10.00;;;;;;;;;;4969775;28;21717;-76
2022/04/26 09:58:45;;;;;;;21.60;10.87;;;;;;;;;;4974279;28;20201;-77
2022/04/26 10:01:14;;;;;;;21.87;9.90;;;;;;;;;;4974871;28;20236;-76
2022/04/26 10:03:44;;;;;;;21.77;11.63;;;;;;;;;;4975765;28;20233;-74
2022/04/26 10:06:16;;;;;;;24.30;11.40;;;;;;;;;;4976808;28;20212;-76
2022/04/26 10:08:47;;;;;;;21.53;10.50;;;;;;;;;;4976989;28;20243;-75
2022/04/26 10:11:15;;;;;;;18.90;10.27;;;;;;;;;;4980429;28;20260;-76
2022/04/26 10:13:43;;;;;;;20.63;10.37;;;;;;;;;;4981025;28;20201;-76
2022/04/26 10:16:11;;;;;;;19.67;10.17;;;;;;;;;;4979701;28;20205;-76
2022/04/26 10:18:39;;;;;;;20.93;10.97;;;;;;;;;;4982045;28;20208;-76
2022/04/26 10:21:07;;;;;;;20.00;10.43;;;;;;;;;;4977020;28;20340;-76
2022/04/26 10:23:54;;;;;;;18.70;9.83;;;;;;;;;;4973250;28;20593;-76
2022/04/26 10:26:27;;;;;;;20.70;10.53;;;;;;;;;;4976640;28;20216;-76
2022/04/26 10:28:55;;;;;;;19.40;9.80;;;;;;;;;;4976092;28;20197;-75
2022/04/26 10:31:35;;;;;;;22.23;11.00;;;;;;;;;;4974032;28;20232;-76
2022/04/26 10:34:03;;;;;;;18.93;10.10;;;;;;;;;;4972968;28;20200;-75
2022/04/26 10:36:34;;;;;;;16.77;9.20;;;;;;;;;;4973440;28;20261;-75
2022/04/26 10:39:20;;;;;;;18.50;9.70;;;;;;;;;;4976326;28;20690;-75
2022/04/26 10:41:48;;;;;;;17.87;9.87;;;;;;;;;;4969137;28;20246;-76
2022/04/26 10:44:27;;;;;;;18.73;9.77;;;;;;;;;;4979645;28;20321;-75
2022/04/26 10:47:18;;;;;;;25.73;12.33;;;;;;;;;;4977060;28;20578;-76
2022/04/26 10:49:45;;;;;;;18.83;9.97;;;;;;;;;;4976153;28;20217;-75
2022/04/26 10:52:34;;;;;;;16.80;9.07;;;;;;;;;;4976066;28;20220;-76
2022/04/26 10:55:03;;;;;;;21.03;9.97;;;;;;;;;;4979283;28;20241;-75
2022/04/26 10:57:33;;;;;;;15.47;8.77;;;;;;;;;;4972540;28;20729;-75
2022/04/26 11:00:01;;;;;;;17.50;8.93;;;;;;;;;;4975611;28;20341;-75
2022/04/26 11:02:31;;;;;;;14.83;8.27;;;;;;;;;;4974320;28;20247;-75
2022/04/26 11:04:59;;;;;;;14.33;8.30;;;;;;;;;;4974483;28;20229;-76
2022/04/26 11:07:27;;;;;;;14.13;8.80;;;;;;;;;;4974463;28;20206;-75
2022/04/26 11:09:54;;;;;;;14.53;7.23;;;;;;;;;;4977602;28;20667;-75
2022/04/26 11:12:22;;;;;;;12.17;6.63;;;;;;;;;;4973509;28;20226;-76
2022/04/26 11:14:51;;;;;;;15.03;7.03;;;;;;;;;;4976557;28;20203;-74
2022/04/26 11:17:19;;;;;;;9.73;5.90;;;;;;;;;;4975239;28;20693;-75
2022/04/26 11:19:51;;;;;;;10.40;6.23;;;;;;;;;;4976861;28;20307;-76
2022/04/26 11:22:19;;;;;;;11.60;5.33;;;;;;;;;;4976149;28;20233;-75
2022/04/26 11:30:26;;;;;;;7.87;5.03;;;;;;;;;;4976210;28;22108;-76
2022/04/26 11:32:56;;;;;;;9.67;5.00;;;;;;;;;;4970667;28;20205;-77
2022/04/26 11:35:24;;;;;;;8.23;5.30;;;;;;;;;;4975690;28;20855;-76
2022/04/26 11:37:54;;;;;;;8.50;5.40;;;;;;;;;;4970680;28;20212;-76
2022/04/26 11:40:25;;;;;;;9.13;5.17;;;;;;;;;;4973360;28;20696;-76
2022/04/26 11:42:52;;;;;;;9.35;5.55;;;;;;;;;;4970728;28;20202;-77
2022/04/26 11:45:21;;;;;;;9.07;5.70;;;;;;;;;;4975566;28;20242;-77
2022/04/26 11:47:50;;;;;;;9.50;6.07;;;;;;;;;;4973274;28;20296;-76
2022/04/26 11:50:18;;;;;;;11.17;6.50;;;;;;;;;;4976416;28;20616;-76
2022/04/26 11:52:46;;;;;;;14.67;5.93;;;;;;;;;;4972119;28;20208;-77
2022/04/26 11:55:24;;;;;;;10.93;5.73;;;;;;;;;;4971638;28;20304;-77
2022/04/26 11:57:51;;;;;;;12.20;5.70;;;;;;;;;;4973006;28;20567;-77
2022/04/26 12:00:20;;;;;;;26.50;16.17;;;;;;;;;;4975925;28;20300;-78
2022/04/26 12:02:48;;;;;;;11.93;6.20;;;;;;;;;;4980482;28;20236;-75
2022/04/26 12:05:20;;;;;;;14.07;7.20;;;;;;;;;;4978225;28;20224;-75
2022/04/26 12:07:48;;;;;;;11.33;5.83;;;;;;;;;;4974169;28;20205;-75
2022/04/26 12:10:33;;;;;;;25.97;17.90;;;;;;;;;;4975735;28;20205;-75
2022/04/26 12:13:02;;;;;;;31.37;23.87;;;;;;;;;;4970107;28;20205;-75
2022/04/26 12:15:31;;;;;;;9.43;5.53;;;;;;;;;;4974288;28;20271;-76
2022/04/26 12:18:08;;;;;;;9.93;6.37;;;;;;;;;;4973623;28;20245;-76
2022/04/26 12:20:37;;;;;;;12.23;7.23;;;;;;;;;;4973538;28;20674;-77
2022/04/26 12:23:05;;;;;;;18.77;7.87;;;;;;;;;;4973478;28;20208;-77
2022/04/26 12:25:33;;;;;;;17.37;8.07;;;;;;;;;;4976442;28;20202;-77
2022/04/26 12:28:07;;;;;;;11.80;7.27;;;;;;;;;;4975989;28;20209;-77
2022/04/26 12:30:37;;;;;;;13.73;8.73;;;;;;;;;;4968466;28;20205;-77
2022/04/26 12:33:04;;;;;;;12.37;6.80;;;;;;;;;;4975112;28;20206;-76
2022/04/26 12:35:32;;;;;;;13.27;7.63;;;;;;;;;;4973855;28;20197;-76
2022/04/26 12:38:10;;;;;;;17.53;8.07;;;;;;;;;;4971468;28;20257;-76
2022/04/26 12:40:37;;;;;;;18.17;10.93;;;;;;;;;;4975501;28;20216;-77
2022/04/26 12:43:24;;;;;;;23.17;12.67;;;;;;;;;;4983732;28;20209;-75
2022/04/26 12:45:57;;;;;;;13.13;7.57;;;;;;;;;;4982011;28;20201;-75
2022/04/26 12:51:14;;;;;;;12.93;7.47;;;;;;;;;;4980604;28;20239;-76
2022/04/26 12:53:43;;;;;;;15.03;7.57;;;;;;;;;;4979967;28;20735;-76
2022/04/26 12:56:11;;;;;;;14.77;7.67;;;;;;;;;;4978187;28;20216;-77
2022/04/26 12:58:39;;;;;;;61.20;45.27;;;;;;;;;;4968016;28;20209;-77
2022/04/26 13:01:12;;;;;;;12.97;8.63;;;;;;;;;;4999002;22;20252;-83
2022/04/26 13:03:43;;;;;;;12.67;6.17;;;;;;;;;;4989782;28;20623;-83
2022/04/26 13:06:18;;;;;;;13.73;7.90;;;;;;;;;;4987341;28;20209;-81
2022/04/26 13:09:09;;;;;;;12.93;7.60;;;;;;;;;;4989162;28;20205;-82
2022/04/26 13:14:27;;;;;;;14.43;7.20;;;;;;;;;;4983695;28;20248;-82
2022/04/26 13:16:59;;;;;;;11.97;7.00;;;;;;;;;;4981544;28;20216;-82
2022/04/26 13:19:31;;;;;;;12.67;7.10;;;;;;;;;;4989540;28;20477;-83
2022/04/26 13:22:30;;;;;;;12.10;6.97;;;;;;;;;;4990168;28;20336;-85
2022/04/26 13:25:12;;;;;;;184.13;99.40;;;;;;;;;;4982652;28;20592;-83
2022/04/26 13:28:04;;;;;;;20.07;12.00;;;;;;;;;;4989503;28;20327;-85
2022/04/26 13:30:35;;;;;;;13.10;8.43;;;;;;;;;;4988917;28;20256;-83
2022/04/26 13:33:24;;;;;;;13.50;7.60;;;;;;;;;;4983294;28;20209;-82
2022/04/26 13:35:56;;;;;;;12.40;7.03;;;;;;;;;;4982038;28;20240;-84
2022/04/26 13:38:31;;;;;;;11.83;6.60;;;;;;;;;;4981634;28;20556;-82
2022/04/26 13:41:13;;;;;;;13.57;7.57;;;;;;;;;;4983381;28;20264;-82
2022/04/26 13:43:43;;;;;;;28.77;18.10;;;;;;;;;;4983195;28;20296;-84
2022/04/26 13:46:12;;;;;;;17.80;8.27;;;;;;;;;;4983197;28;20213;-82
2022/04/26 13:48:39;;;;;;;16.60;8.27;;;;;;;;;;4985468;28;20219;-81
2022/04/26 13:51:09;;;;;;;14.53;7.40;;;;;;;;;;4979176;28;20263;-80
2022/04/26 13:53:37;;;;;;;14.27;7.80;;;;;;;;;;4982990;28;20283;-83
2022/04/26 13:56:09;;;;;;;14.07;7.77;;;;;;;;;;4984567;28;20216;-83
2022/04/26 13:58:37;;;;;;;13.77;7.40;;;;;;;;;;4986314;28;20289;-80
2022/04/26 14:01:07;;;;;;;12.43;7.40;;;;;;;;;;4980902;28;20234;-80
2022/04/26 14:03:35;;;;;;;12.33;7.30;;;;;;;;;;4980436;28;20587;-83
2022/04/26 14:09:10;;;;;;;11.10;7.40;;;;;;;;;;4988074;28;20200;-82
2022/04/26 14:30:10;;;;;;;13.33;7.90;;;;;;;;;;4969302;28;20644;-82
2022/04/26 14:41:55;;;;;;;14.77;7.77;;;;;;;;;;4988733;28;20239;-84
2022/04/26 14:47:44;;;;;;;12.73;7.13;;;;;;;;;;4974868;28;20705;-83
2022/04/26 14:59:14;;;;;;;12.37;7.03;;;;;;;;;;4947272;28;20644;-84
2022/04/26 15:01:46;;;;;;;13.43;7.90;;;;;;;;;;4986963;28;20231;-83
2022/04/26 15:04:27;;;;;;;14.37;8.47;;;;;;;;;;4984501;28;20290;-84
2022/04/26 15:06:56;;;;;;;25.50;12.50;;;;;;;;;;4983293;28;20375;-83
2022/04/26 15:17:41;;;;;;;16.27;8.20;;;;;;;;;;4988777;28;20278;-85
2022/04/26 15:20:13;;;;;;;15.60;8.70;;;;;;;;;;4985877;28;20264;-84
2022/04/26 15:22:43;;;;;;;20.77;8.47;;;;;;;;;;4986061;28;20352;-84
2022/04/26 15:25:11;;;;;;;15.17;8.83;;;;;;;;;;4986430;28;20239;-83
2022/04/26 15:27:39;;;;;;;13.63;8.00;;;;;;;;;;4986542;28;20277;-83
2022/04/26 15:30:07;;;;;;;13.60;8.03;;;;;;;;;;4981472;28;20217;-83
2022/04/26 15:32:35;;;;;;;12.60;8.03;;;;;;;;;;4978743;28;20264;-83
2022/04/26 15:35:03;;;;;;;16.37;8.30;;;;;;;;;;4984612;28;20204;-83
2022/04/26 15:37:32;;;;;;;17.30;8.23;;;;;;;;;;4988880;28;20213;-83
2022/04/26 15:39:59;;;;;;;26.67;13.57;;;;;;;;;;4989188;28;20204;-84
2022/04/26 15:42:26;;;;;;;20.33;9.47;;;;;;;;;;4985526;28;20236;-83
2022/04/26 15:44:54;;;;;;;15.77;9.00;;;;;;;;;;4986817;28;20217;-84
2022/04/26 15:47:21;;;;;;;15.70;8.73;;;;;;;;;;4986897;28;20594;-83
2022/04/26 15:49:48;;;;;;;24.13;13.90;;;;;;;;;;4991899;28;20302;-82
2022/04/26 15:52:16;;;;;;;27.97;16.50;;;;;;;;;;4989565;28;20280;-83
2022/04/26 15:54:44;;;;;;;20.63;11.60;;;;;;;;;;4989295;28;20209;-83
2022/04/26 15:57:13;;;;;;;14.73;8.70;;;;;;;;;;4985949;28;20237;-83
2022/04/26 15:59:41;;;;;;;16.20;9.63;;;;;;;;;;4990095;28;20210;-83
2022/04/26 16:02:08;;;;;;;15.30;8.30;;;;;;;;;;4987942;28;20259;-84
2022/04/26 16:04:38;;;;;;;13.40;8.60;;;;;;;;;;4990184;28;20284;-82
2022/04/26 16:07:05;;;;;;;18.73;9.87;;;;;;;;;;4984993;28;20213;-81
2022/04/26 16:20:34;;;;;;;35.07;24.67;;;;;;;;;;4985664;28;20200;-85
2022/04/26 16:23:09;;;;;;;20.97;11.83;;;;;;;;;;4986891;28;20351;-84
2022/04/26 16:25:47;;;;;;;27.37;16.63;;;;;;;;;;4986097;28;20284;-84
2022/04/26 16:28:15;;;;;;;28.10;15.60;;;;;;;;;;4981729;28;20211;-83
2022/04/26 16:30:50;;;;;;;18.13;9.73;;;;;;;;;;4985259;28;20263;-84
2022/04/26 16:33:25;;;;;;;17.30;9.80;;;;;;;;;;4986274;28;20215;-84
2022/04/26 16:35:52;;;;;;;23.87;13.50;;;;;;;;;;4988971;28;20324;-83
2022/04/26 16:38:21;;;;;;;24.60;12.73;;;;;;;;;;4990563;28;20194;-84
2022/04/26 16:40:49;;;;;;;23.77;13.83;;;;;;;;;;4992030;28;20243;-83
2022/04/26 16:43:19;;;;;;;21.13;12.53;;;;;;;;;;5001163;28;20261;-84
2022/04/26 16:45:56;;;;;;;19.43;10.93;;;;;;;;;;5011490;28;20283;-84
2022/04/26 16:48:23;;;;;;;19.87;12.43;;;;;;;;;;5007661;28;20205;-83
2022/04/26 16:50:51;;;;;;;23.20;11.13;;;;;;;;;;4990497;28;20256;-83
2022/04/26 16:53:27;;;;;;;38.00;19.03;;;;;;;;;;4988004;28;20213;-84
2022/04/26 16:55:56;;;;;;;23.57;12.43;;;;;;;;;;4991144;28;20257;-83
2022/04/26 16:58:25;;;;;;;24.20;12.20;;;;;;;;;;4987936;28;20209;-83
2022/04/26 17:00:55;;;;;;;20.87;12.07;;;;;;;;;;4989276;28;20204;-83
2022/04/26 17:03:23;;;;;;;23.80;13.63;;;;;;;;;;4986116;28;20220;-83
2022/04/26 17:05:50;;;;;;;23.43;15.37;;;;;;;;;;4988104;28;20233;-83
2022/04/26 17:08:19;;;;;;;23.13;13.80;;;;;;;;;;4990566;28;20213;-83
2022/04/26 17:10:50;;;;;;;18.27;10.17;;;;;;;;;;4991496;28;20205;-83
2022/04/26 17:13:21;;;;;;;16.00;9.40;;;;;;;;;;4987413;28;20727;-84
2022/04/26 17:15:50;;;;;;;24.10;14.80;;;;;;;;;;4989743;28;20602;-83
2022/04/26 17:18:21;;;;;;;21.10;12.23;;;;;;;;;;4992161;28;20413;-83
2022/04/26 17:20:56;;;;;;;29.27;17.30;;;;;;;;;;4994858;28;20653;-84
2022/04/26 17:23:36;;;;;;;21.53;11.33;;;;;;;;;;4985981;28;20652;-83
2022/04/26 17:26:05;;;;;;;27.17;12.27;;;;;;;;;;4986535;28;20228;-83
2022/04/26 17:28:32;;;;;;;24.27;13.60;;;;;;;;;;4982799;28;20247;-83
2022/04/26 17:31:05;;;;;;;20.43;11.00;;;;;;;;;;4984854;28;20256;-83
2022/04/26 17:33:32;;;;;;;20.90;10.87;;;;;;;;;;4986212;28;20263;-84
2022/04/26 17:36:01;;;;;;;21.77;10.40;;;;;;;;;;4990603;28;20197;-84
2022/04/26 17:38:28;;;;;;;19.33;11.17;;;;;;;;;;4987559;28;20209;-84
2022/04/26 17:40:56;;;;;;;16.77;9.73;;;;;;;;;;4990491;28;20590;-84
2022/04/26 17:43:24;;;;;;;16.70;10.03;;;;;;;;;;4987126;28;20212;-83
2022/04/26 17:45:51;;;;;;;17.47;10.30;;;;;;;;;;4989434;28;20247;-84
2022/04/26 17:48:26;;;;;;;22.47;11.57;;;;;;;;;;4987445;28;20240;-84
2022/04/26 17:50:54;;;;;;;18.17;10.23;;;;;;;;;;4988362;28;20201;-84
2022/04/26 17:58:51;;;;;;;17.83;10.60;;;;;;;;;;4995908;28;20267;-84
2022/04/26 18:01:18;;;;;;;18.80;10.07;;;;;;;;;;4993264;28;20232;-84
2022/04/26 18:03:49;;;;;;;18.20;10.40;;;;;;;;;;4994391;28;20304;-83
2022/04/26 18:06:18;;;;;;;21.83;10.97;;;;;;;;;;4990505;28;20280;-85
2022/04/26 18:08:50;;;;;;;18.20;11.23;;;;;;;;;;4990202;28;20201;-84
2022/04/26 18:11:18;;;;;;;19.20;10.73;;;;;;;;;;4993779;28;20225;-85
2022/04/26 18:13:52;;;;;;;18.77;10.33;;;;;;;;;;4992557;28;20223;-84
2022/04/26 18:16:21;;;;;;;19.90;11.30;;;;;;;;;;4992947;28;20234;-84
2022/04/26 18:18:54;;;;;;;19.63;11.37;;;;;;;;;;4982917;28;20555;-84
2022/04/26 18:21:21;;;;;;;21.63;11.37;;;;;;;;;;4993440;28;20327;-82
2022/04/26 18:23:55;;;;;;;22.10;12.60;;;;;;;;;;4990204;28;20770;-83
2022/04/26 18:26:23;;;;;;;23.80;12.53;;;;;;;;;;4994799;28;20629;-83
2022/04/26 18:28:51;;;;;;;21.77;13.20;;;;;;;;;;4993139;28;20215;-85
2022/04/26 18:31:20;;;;;;;25.73;14.87;;;;;;;;;;4984912;28;20231;-82
2022/04/26 18:33:50;;;;;;;26.57;14.07;;;;;;;;;;4983122;28;20209;-83
2022/04/26 18:36:20;;;;;;;22.83;13.07;;;;;;;;;;4989922;28;20235;-83
2022/04/26 18:38:50;;;;;;;27.00;15.30;;;;;;;;;;4985612;28;20661;-85
2022/04/26 18:41:20;;;;;;;31.13;15.67;;;;;;;;;;4994186;28;20642;-84
2022/04/26 18:43:52;;;;;;;28.40;15.50;;;;;;;;;;4982645;28;20205;-83
2022/04/26 18:46:24;;;;;;;27.30;14.77;;;;;;;;;;4984744;28;20863;-83
2022/04/26 18:48:59;;;;;;;28.43;14.53;;;;;;;;;;4982165;28;20779;-84
2022/04/26 18:51:35;;;;;;;22.33;13.07;;;;;;;;;;4983630;28;20247;-83
2022/04/26 18:54:06;;;;;;;26.40;14.00;;;;;;;;;;4984300;28;20683;-83
2022/04/26 18:56:35;;;;;;;26.83;13.63;;;;;;;;;;4998435;28;20213;-84
2022/04/26 18:59:03;;;;;;;28.00;13.93;;;;;;;;;;4990519;28;20215;-86
2022/04/26 19:01:31;;;;;;;30.40;16.03;;;;;;;;;;4997920;28;20236;-85
2022/04/26 19:03:58;;;;;;;23.70;13.00;;;;;;;;;;4995302;28;20264;-84
2022/04/26 19:06:35;;;;;;;19.10;11.00;;;;;;;;;;4994758;28;20234;-84
2022/04/26 19:09:09;;;;;;;19.83;11.17;;;;;;;;;;4993746;28;20643;-84
2022/04/26 19:14:23;;;;;;;17.50;10.20;;;;;;;;;;4992448;28;20224;-84
2022/04/26 19:16:50;;;;;;;17.87;9.87;;;;;;;;;;4988766;28;20209;-85
2022/04/26 19:19:20;;;;;;;20.60;9.70;;;;;;;;;;5005954;28;20208;-83
2022/04/26 19:21:49;;;;;;;17.03;9.63;;;;;;;;;;5016917;22;20314;-77
2022/04/26 19:24:16;;;;;;;17.17;10.17;;;;;;;;;;4997168;28;20331;-77
2022/04/26 19:26:43;;;;;;;19.57;10.00;;;;;;;;;;4998093;28;20706;-77
2022/04/26 19:29:11;;;;;;;20.37;9.70;;;;;;;;;;5000500;28;20678;-77
2022/04/26 19:31:38;;;;;;;20.43;11.90;;;;;;;;;;4998510;28;20233;-77
2022/04/26 19:34:05;;;;;;;22.77;12.67;;;;;;;;;;4995336;28;20295;-77
2022/04/26 19:36:33;;;;;;;24.37;14.63;;;;;;;;;;4995981;28;20267;-77
2022/04/26 19:39:01;;;;;;;28.10;16.03;;;;;;;;;;5001260;28;20228;-77
2022/04/26 19:41:29;;;;;;;30.73;17.33;;;;;;;;;;4997673;28;21272;-77
2022/04/26 19:43:56;;;;;;;32.67;16.87;;;;;;;;;;4994963;28;20674;-77
2022/04/26 19:46:23;;;;;;;22.03;12.17;;;;;;;;;;4995686;28;20316;-77
2022/04/26 19:48:51;;;;;;;22.50;11.87;;;;;;;;;;4992970;28;20210;-77
2022/04/26 19:51:26;;;;;;;18.77;11.50;;;;;;;;;;4998387;28;20304;-76